createdAt,value
2017-08-31T00:00:36.550Z,100346.30
2017-08-31T00:03:04.413Z,100352.34
2017-08-31T00:05:32.300Z,100356.77
2017-08-31T00:08:00.153Z,100354.70
2017-08-31T00:10:28.029Z,100351.83
2017-08-31T00:12:55.888Z,100364.12
2017-08-31T00:15:23.765Z,100355.86
2017-08-31T00:17:51.668Z,100359.13
2017-08-31T00:20:19.606Z,100354.66
2017-08-31T00:22:47.502Z,100356.89
2017-08-31T00:25:15.346Z,100362.55
2017-08-31T00:27:43.291Z,100358.47
2017-08-31T00:30:11.136Z,100347.74
2017-08-31T00:32:39.045Z,100346.73
2017-08-31T00:35:06.906Z,100344.50
2017-08-31T00:37:34.737Z,100340.44
2017-08-31T00:40:02.494Z,100341.89
2017-08-31T00:42:30.385Z,100346.58
2017-08-31T00:44:58.275Z,100346.20
2017-08-31T00:47:26.248Z,100351.08
2017-08-31T00:49:54.124Z,100354.35
2017-08-31T00:52:22.018Z,100358.85
2017-08-31T00:54:50.033Z,100365.73
2017-08-31T00:57:18.898Z,100364.73
2017-08-31T00:59:46.811Z,100364.32
2017-08-31T01:02:14.670Z,100371.18
2017-08-31T01:04:42.565Z,100360.67
2017-08-31T01:07:10.433Z,100362.50
2017-08-31T01:09:38.303Z,100370.36
2017-08-31T01:12:06.146Z,100371.18
2017-08-31T01:14:34.055Z,100369.58
2017-08-31T01:17:01.898Z,100382.50
2017-08-31T01:19:29.781Z,100388.77
2017-08-31T01:21:57.727Z,100390.96
2017-08-31T01:24:25.634Z,100387.53
2017-08-31T01:26:53.561Z,100380.27
2017-08-31T01:29:21.458Z,100387.56
2017-08-31T01:31:49.415Z,100399.30
2017-08-31T01:34:17.306Z,100402.98
2017-08-31T01:36:45.252Z,100402.20
2017-08-31T01:39:13.144Z,100405.84
2017-08-31T01:41:41.061Z,100407.48
2017-08-31T01:44:08.932Z,100416.60
2017-08-31T01:46:36.859Z,100415.78
2017-08-31T01:49:04.740Z,100423.09
2017-08-31T01:51:32.708Z,100422.05
2017-08-31T01:54:00.515Z,100436.17
2017-08-31T01:56:28.467Z,100433.94
2017-08-31T01:58:56.388Z,100432.94
2017-08-31T02:01:24.273Z,100431.70
2017-08-31T02:03:52.189Z,100437.15
2017-08-31T02:06:20.053Z,100436.74
2017-08-31T02:08:47.925Z,100437.15
2017-08-31T02:11:15.772Z,100434.31
2017-08-31T02:13:43.657Z,100428.66
2017-08-31T02:16:11.558Z,100429.66
2017-08-31T02:18:39.437Z,100427.02
2017-08-31T02:21:07.301Z,100430.85
2017-08-31T02:23:35.232Z,100427.17
2017-08-31T02:26:03.170Z,100430.41
2017-08-31T02:28:31.057Z,100429.40
2017-08-31T02:30:58.951Z,100423.92
2017-08-31T02:33:26.812Z,100418.45
2017-08-31T02:35:54.725Z,100415.02
2017-08-31T02:38:22.609Z,100420.28
2017-08-31T02:40:50.525Z,100420.28
2017-08-31T02:43:18.364Z,100416.41
2017-08-31T02:45:46.245Z,100416.21
2017-08-31T02:48:14.137Z,100419.83
2017-08-31T02:50:42.016Z,100429.10
2017-08-31T02:53:09.870Z,100437.96
2017-08-31T02:55:37.700Z,100435.31
2017-08-31T02:58:05.612Z,100425.03
2017-08-31T03:00:33.496Z,100416.33
2017-08-31T03:03:01.381Z,100411.27
2017-08-31T03:05:29.257Z,100409.63
2017-08-31T03:07:57.166Z,100416.05
2017-08-31T03:10:25.022Z,100420.93
2017-08-31T03:12:52.922Z,100420.94
2017-08-31T03:15:20.776Z,100429.83
2017-08-31T03:17:48.684Z,100446.81
2017-08-31T03:20:16.524Z,100459.31
2017-08-31T03:22:44.452Z,100458.27
2017-08-31T03:25:12.315Z,100454.02
2017-08-31T03:27:40.162Z,100458.09
2017-08-31T03:30:08.065Z,100467.08
2017-08-31T03:32:35.904Z,100466.30
2017-08-31T03:35:03.788Z,100478.04
2017-08-31T03:37:31.637Z,100478.90
2017-08-31T03:39:59.439Z,100476.52
2017-08-31T03:42:27.289Z,100475.11
2017-08-31T03:44:55.212Z,100480.58
2017-08-31T03:47:23.063Z,100482.59
2017-08-31T03:49:50.941Z,100484.23
2017-08-31T03:52:18.809Z,100490.68
2017-08-31T03:54:46.640Z,100492.72
2017-08-31T03:57:14.554Z,100490.91
2017-08-31T03:59:42.461Z,100485.05
2017-08-31T04:02:10.368Z,100488.89
2017-08-31T04:04:38.220Z,100478.53
2017-08-31T04:07:06.130Z,100478.53
2017-08-31T04:09:33.997Z,100486.39
2017-08-31T04:12:01.880Z,100492.05
2017-08-31T04:14:29.764Z,100489.58
2017-08-31T04:16:57.672Z,100497.66
2017-08-31T04:19:25.420Z,100493.38
2017-08-31T04:21:53.306Z,100496.20
2017-08-31T04:24:21.194Z,100497.75
2017-08-31T04:26:48.942Z,100501.53
2017-08-31T04:29:16.757Z,100497.69
2017-08-31T04:31:44.603Z,100498.88
2017-08-31T04:34:12.504Z,100493.63
2017-08-31T04:36:40.360Z,100491.58
2017-08-31T04:39:08.260Z,100486.73
2017-08-31T04:41:36.113Z,100485.73
2017-08-31T04:44:04.002Z,100492.55
2017-08-31T04:46:31.770Z,100492.36
2017-08-31T04:48:59.556Z,100491.36
2017-08-31T04:51:27.289Z,100492.62
2017-08-31T04:53:55.029Z,100499.34
2017-08-31T04:56:22.825Z,100512.12
2017-08-31T04:58:50.572Z,100513.95
2017-08-31T05:01:18.422Z,100519.84
2017-08-31T05:03:46.247Z,100518.47
2017-08-31T05:06:14.120Z,100525.19
2017-08-31T05:08:43.116Z,100518.75
2017-08-31T05:11:11.000Z,100527.25
2017-08-31T05:13:38.802Z,100525.43
2017-08-31T05:16:06.672Z,100535.15
2017-08-31T05:18:34.472Z,100517.38
2017-08-31T05:21:02.268Z,100518.39
2017-08-31T05:23:30.127Z,100516.98
2017-08-31T05:25:57.907Z,100514.38
2017-08-31T05:28:25.739Z,100523.28
2017-08-31T05:30:53.525Z,100529.81
2017-08-31T05:33:21.364Z,100534.13
2017-08-31T05:35:49.162Z,100526.73
2017-08-31T05:38:17.005Z,100530.48
2017-08-31T05:40:44.808Z,100533.59
2017-08-31T05:43:12.663Z,100542.56
2017-08-31T05:45:40.447Z,100547.06
2017-08-31T05:48:08.297Z,100554.17
2017-08-31T05:50:36.076Z,100548.50
2017-08-31T05:53:03.869Z,100542.02
2017-08-31T05:55:31.700Z,100538.77
2017-08-31T05:57:59.492Z,100540.22
2017-08-31T06:00:27.338Z,100536.37
2017-08-31T06:02:55.141Z,100547.30
2017-08-31T06:05:22.966Z,100553.16
2017-08-31T06:07:50.741Z,100545.09
2017-08-31T06:10:18.565Z,100534.73
2017-08-31T06:12:46.389Z,100546.65
2017-08-31T06:15:14.289Z,100545.02
2017-08-31T06:17:42.024Z,100541.58
2017-08-31T06:20:09.809Z,100529.28
2017-08-31T06:22:37.574Z,100530.11
2017-08-31T06:25:05.389Z,100532.77
2017-08-31T06:27:33.164Z,100529.92
2017-08-31T06:30:00.888Z,100529.45
2017-08-31T06:32:28.710Z,100529.80
2017-08-31T06:34:56.466Z,100541.14
2017-08-31T06:37:24.257Z,100542.18
2017-08-31T06:39:52.059Z,100539.78
2017-08-31T06:42:19.892Z,100537.16
2017-08-31T06:44:47.734Z,100548.72
2017-08-31T06:47:15.544Z,100549.70
2017-08-31T06:49:43.371Z,100561.86
2017-08-31T06:52:11.136Z,100570.31
2017-08-31T06:54:38.929Z,100575.55
2017-08-31T06:57:06.676Z,100579.20
2017-08-31T06:59:34.481Z,100571.10
2017-08-31T07:02:02.219Z,100581.47
2017-08-31T07:04:30.045Z,100582.06
2017-08-31T07:06:57.780Z,100572.30
2017-08-31T07:09:25.632Z,100582.25
2017-08-31T07:11:53.541Z,100587.60
2017-08-31T07:14:21.428Z,100592.45
2017-08-31T07:16:49.366Z,100597.17
2017-08-31T07:19:17.234Z,100601.42
2017-08-31T07:21:45.183Z,100608.16
2017-08-31T07:24:13.089Z,100611.18
2017-08-31T07:26:41.476Z,100609.58
2017-08-31T07:29:09.395Z,100594.60
2017-08-31T07:31:37.192Z,100603.76
2017-08-31T07:34:05.039Z,100616.54
2017-08-31T07:36:32.857Z,100616.54
2017-08-31T07:39:00.780Z,100624.24
2017-08-31T07:41:28.626Z,100618.14
2017-08-31T07:43:56.405Z,100634.77
2017-08-31T07:46:24.288Z,100636.41
2017-08-31T07:48:52.242Z,100630.77
2017-08-31T07:51:20.007Z,100639.70
2017-08-31T07:53:47.843Z,100635.66
2017-08-31T07:56:15.610Z,100649.58
2017-08-31T07:58:43.471Z,100653.60
2017-08-31T08:01:11.290Z,100662.30
2017-08-31T08:03:39.135Z,100672.10
2017-08-31T08:06:06.897Z,100681.02
2017-08-31T08:08:34.820Z,100686.95
2017-08-31T08:11:02.631Z,100687.92
2017-08-31T08:13:30.488Z,100687.37
2017-08-31T08:15:58.230Z,100689.08
2017-08-31T08:18:26.078Z,100685.41
2017-08-31T08:20:54.008Z,100683.47
2017-08-31T08:23:21.777Z,100699.05
2017-08-31T08:25:49.597Z,100695.93
2017-08-31T08:28:17.380Z,100691.80
2017-08-31T08:30:45.206Z,100700.08
2017-08-31T08:33:12.983Z,100705.62
2017-08-31T08:35:40.790Z,100706.30
2017-08-31T08:38:09.359Z,100704.16
2017-08-31T08:40:37.854Z,100710.55
2017-08-31T08:43:05.793Z,100716.06
2017-08-31T08:45:33.610Z,100728.87
2017-08-31T08:48:01.381Z,100724.27
2017-08-31T08:50:29.317Z,100736.75
2017-08-31T08:52:57.036Z,100739.30
2017-08-31T08:55:24.963Z,100739.21
2017-08-31T08:57:52.788Z,100737.25
2017-08-31T09:00:20.666Z,100737.18
2017-08-31T09:02:48.585Z,100748.78
2017-08-31T09:05:16.514Z,100755.27
2017-08-31T09:07:44.428Z,100750.47
2017-08-31T09:10:12.278Z,100755.03
2017-08-31T09:12:40.093Z,100767.83
2017-08-31T09:15:07.936Z,100782.88
2017-08-31T09:17:35.963Z,100785.30
2017-08-31T09:20:03.724Z,100780.97
2017-08-31T09:22:31.670Z,100777.82
2017-08-31T09:24:59.566Z,100789.63
2017-08-31T09:27:27.467Z,100798.39
2017-08-31T09:29:55.335Z,100801.08
2017-08-31T09:32:23.172Z,100799.07
2017-08-31T09:34:51.075Z,100795.04
2017-08-31T09:37:18.932Z,100795.42
2017-08-31T09:39:46.838Z,100806.13
2017-08-31T09:42:14.564Z,100812.71
2017-08-31T09:44:42.349Z,100821.85
2017-08-31T09:47:10.158Z,100836.55
2017-08-31T09:49:37.968Z,100831.59
2017-08-31T09:52:05.683Z,100834.97
2017-08-31T09:54:33.495Z,100839.87
2017-08-31T09:57:01.241Z,100832.25
2017-08-31T09:59:28.991Z,100836.98
2017-08-31T10:01:56.779Z,100843.88
2017-08-31T10:04:24.518Z,100855.56
2017-08-31T10:06:52.357Z,100858.13
2017-08-31T10:09:20.099Z,100857.28
2017-08-31T10:11:47.874Z,100861.13
2017-08-31T10:14:15.632Z,100857.80
2017-08-31T10:16:43.479Z,100866.18
2017-08-31T10:19:11.208Z,100858.91
2017-08-31T10:21:38.996Z,100864.75
2017-08-31T10:24:06.728Z,100865.24
2017-08-31T10:26:34.563Z,100876.63
2017-08-31T10:29:02.366Z,100879.25
2017-08-31T10:31:30.197Z,100895.52
2017-08-31T10:33:58.044Z,100900.95
2017-08-31T10:36:25.860Z,100908.42
2017-08-31T10:38:53.686Z,100913.98
2017-08-31T10:41:21.467Z,100908.14
2017-08-31T10:43:49.283Z,100905.91
2017-08-31T10:46:17.066Z,100919.86
2017-08-31T10:48:44.918Z,100915.14
2017-08-31T10:51:12.829Z,100930.46
2017-08-31T10:53:40.782Z,100938.80
2017-08-31T10:56:09.644Z,100928.91
2017-08-31T10:58:37.561Z,100932.17
2017-08-31T11:01:05.442Z,100933.00
2017-08-31T11:03:33.362Z,100934.48
2017-08-31T11:06:01.229Z,100935.83
2017-08-31T11:08:29.049Z,100948.02
2017-08-31T11:10:56.897Z,100956.56
2017-08-31T11:13:24.697Z,100968.84
2017-08-31T11:15:52.579Z,100970.23
2017-08-31T11:18:20.351Z,100969.13
2017-08-31T11:20:48.236Z,100971.92
2017-08-31T11:23:16.116Z,100979.15
2017-08-31T11:25:43.985Z,100976.14
2017-08-31T11:28:11.964Z,100970.48
2017-08-31T11:30:39.819Z,100970.78
2017-08-31T11:33:07.842Z,100979.67
2017-08-31T11:35:35.684Z,100977.72
2017-08-31T11:38:03.603Z,100984.71
2017-08-31T11:40:31.463Z,100992.45
2017-08-31T11:42:59.391Z,101000.52
2017-08-31T11:45:27.265Z,100996.64
2017-08-31T11:47:55.174Z,101002.05
2017-08-31T11:50:23.032Z,101010.97
2017-08-31T11:52:50.971Z,101013.98
2017-08-31T11:55:18.804Z,101016.13
2017-08-31T11:57:46.555Z,101020.63
2017-08-31T12:00:14.472Z,101021.59
2017-08-31T12:02:42.186Z,101018.38
2017-08-31T12:05:10.118Z,101018.52
2017-08-31T12:07:37.864Z,101016.27
2017-08-31T12:10:05.786Z,101021.94
2017-08-31T12:12:33.661Z,101041.72
2017-08-31T12:15:01.568Z,101050.41
2017-08-31T12:17:29.438Z,101046.13
2017-08-31T12:19:57.337Z,101058.36
2017-08-31T12:22:25.253Z,101060.73
2017-08-31T12:24:53.164Z,101071.58
2017-08-31T12:27:21.037Z,101066.00
2017-08-31T12:29:48.892Z,101080.58
2017-08-31T12:32:16.816Z,101072.14
2017-08-31T12:34:44.674Z,101071.02
2017-08-31T12:37:12.598Z,101079.61
2017-08-31T12:39:40.378Z,101084.95
2017-08-31T12:42:08.298Z,101087.66
2017-08-31T12:44:36.150Z,101088.58
2017-08-31T12:47:04.051Z,101093.28
2017-08-31T12:49:31.923Z,101097.27
2017-08-31T12:51:59.805Z,101097.55
2017-08-31T12:54:27.673Z,101086.88
2017-08-31T12:56:55.727Z,101096.22
2017-08-31T12:59:23.633Z,101101.72
2017-08-31T13:01:51.492Z,101115.83
2017-08-31T13:04:19.406Z,101118.17
2017-08-31T13:06:47.228Z,101136.55
2017-08-31T13:09:15.131Z,101115.69
2017-08-31T13:11:43.005Z,101116.33
2017-08-31T13:14:10.901Z,101128.02
2017-08-31T13:16:38.768Z,101135.83
2017-08-31T13:19:06.655Z,101135.23
2017-08-31T13:21:34.532Z,101128.64
2017-08-31T13:24:02.439Z,101135.97
2017-08-31T13:26:30.337Z,101138.20
2017-08-31T13:28:58.225Z,101152.74
2017-08-31T13:31:25.979Z,101149.20
2017-08-31T13:33:53.764Z,101153.48
2017-08-31T13:36:21.588Z,101155.56
2017-08-31T13:38:49.460Z,101158.56
2017-08-31T13:41:17.274Z,101162.66
2017-08-31T13:43:45.117Z,101170.59
2017-08-31T13:46:13.037Z,101182.25
2017-08-31T13:48:40.871Z,101180.42
2017-08-31T13:51:08.756Z,101181.02
2017-08-31T13:53:36.633Z,101181.48
2017-08-31T13:56:04.561Z,101190.70
2017-08-31T13:58:32.397Z,101209.42
2017-08-31T14:01:00.232Z,101201.86
2017-08-31T14:03:28.121Z,101210.31
2017-08-31T14:05:56.014Z,101223.30
2017-08-31T14:08:23.918Z,101228.17
2017-08-31T14:10:51.707Z,101230.92
2017-08-31T14:13:19.637Z,101240.44
2017-08-31T14:15:47.560Z,101241.31
2017-08-31T14:18:15.468Z,101238.62
2017-08-31T14:20:43.356Z,101241.04
2017-08-31T14:23:11.266Z,101239.42
2017-08-31T14:25:39.116Z,101242.61
2017-08-31T14:28:06.881Z,101240.67
2017-08-31T14:30:34.691Z,101229.77
2017-08-31T14:33:02.443Z,101231.98
2017-08-31T14:35:30.263Z,101230.69
2017-08-31T14:37:58.049Z,101249.20
2017-08-31T14:40:25.860Z,101257.77
2017-08-31T14:42:53.736Z,101243.63
2017-08-31T14:45:21.645Z,101246.24
2017-08-31T14:47:49.495Z,101250.66
2017-08-31T14:50:17.437Z,101240.65
2017-08-31T14:52:45.279Z,101245.62
2017-08-31T14:55:13.139Z,101246.47
2017-08-31T14:57:41.052Z,101250.59
2017-08-31T15:00:08.911Z,101257.64
2017-08-31T15:02:36.852Z,101278.86
2017-08-31T15:05:04.739Z,101275.01
2017-08-31T15:07:32.677Z,101284.94
2017-08-31T15:10:00.447Z,101289.41
2017-08-31T15:12:28.237Z,101286.45
2017-08-31T15:14:56.080Z,101300.72
2017-08-31T15:17:23.982Z,101298.06
2017-08-31T15:19:51.843Z,101298.30
2017-08-31T15:22:19.797Z,101302.19
2017-08-31T15:24:47.707Z,101310.17
2017-08-31T15:27:15.657Z,101316.05
2017-08-31T15:29:43.515Z,101319.39
2017-08-31T15:32:11.357Z,101322.55
2017-08-31T15:34:39.278Z,101325.04
2017-08-31T15:37:07.124Z,101326.66
2017-08-31T15:39:34.988Z,101338.26
2017-08-31T15:42:03.786Z,101342.95
2017-08-31T15:44:31.689Z,101334.25
2017-08-31T15:46:59.601Z,101335.25
2017-08-31T15:49:27.490Z,101338.57
2017-08-31T15:51:55.341Z,101335.80
2017-08-31T15:54:23.273Z,101337.06
2017-08-31T15:56:51.140Z,101345.70
2017-08-31T15:59:19.058Z,101357.12
2017-08-31T16:01:46.776Z,101353.82
2017-08-31T16:04:14.506Z,101359.08
2017-08-31T16:06:42.283Z,101365.72
2017-08-31T16:09:10.033Z,101367.27
2017-08-31T16:11:37.801Z,101362.75
2017-08-31T16:14:05.516Z,101365.68
2017-08-31T16:16:33.297Z,101360.42
2017-08-31T16:19:01.044Z,101381.40
2017-08-31T16:21:28.822Z,101380.16
2017-08-31T16:23:56.560Z,101371.87
2017-08-31T16:26:24.347Z,101376.44
2017-08-31T16:28:52.060Z,101374.16
2017-08-31T16:31:19.833Z,101388.69
2017-08-31T16:33:47.585Z,101397.73
2017-08-31T16:36:15.341Z,101406.15
2017-08-31T16:38:43.079Z,101406.10
2017-08-31T16:41:10.842Z,101394.19
2017-08-31T16:43:38.614Z,101399.32
2017-08-31T16:46:06.355Z,101403.72
2017-08-31T16:48:34.161Z,101412.87
2017-08-31T16:51:01.900Z,101426.16
2017-08-31T16:53:29.676Z,101416.81
2017-08-31T16:55:57.431Z,101421.99
2017-08-31T16:58:25.244Z,101422.59
2017-08-31T17:00:52.970Z,101432.17
2017-08-31T17:03:20.747Z,101431.80
2017-08-31T17:05:48.470Z,101447.51
2017-08-31T17:08:16.249Z,101447.27
2017-08-31T17:10:43.980Z,101457.84
2017-08-31T17:13:12.293Z,101459.55
2017-08-31T17:15:40.109Z,101450.73
2017-08-31T17:18:07.853Z,101447.14
2017-08-31T17:20:35.742Z,101455.13
2017-08-31T17:23:03.552Z,101458.37
2017-08-31T17:25:31.325Z,101467.34
2017-08-31T17:27:59.167Z,101478.47
2017-08-31T17:30:26.999Z,101492.44
2017-08-31T17:32:54.713Z,101496.44
2017-08-31T17:35:22.481Z,101504.23
2017-08-31T17:37:50.206Z,101504.30
2017-08-31T17:40:17.940Z,101513.22
2017-08-31T17:42:45.730Z,101519.91
2017-08-31T17:45:13.462Z,101517.61
2017-08-31T17:47:41.302Z,101529.87
2017-08-31T17:50:09.049Z,101523.44
2017-08-31T17:52:36.814Z,101525.95
2017-08-31T17:55:04.563Z,101529.85
2017-08-31T17:57:32.386Z,101530.23
2017-08-31T18:00:00.123Z,101527.31
2017-08-31T18:02:27.938Z,101531.06
2017-08-31T18:04:55.728Z,101538.14
2017-08-31T18:07:23.478Z,101532.47
2017-08-31T18:09:51.251Z,101544.30
2017-08-31T18:12:18.973Z,101544.97
2017-08-31T18:14:46.783Z,101540.64
2017-08-31T18:17:14.526Z,101545.96
2017-08-31T18:19:42.299Z,101552.05
2017-08-31T18:22:10.058Z,101553.56
2017-08-31T18:24:37.834Z,101561.73
2017-08-31T18:27:05.569Z,101570.78
2017-08-31T18:29:33.405Z,101578.11
2017-08-31T18:32:01.125Z,101578.76
2017-08-31T18:34:28.856Z,101577.00
2017-08-31T18:36:56.621Z,101580.70
2017-08-31T18:39:24.349Z,101582.95
2017-08-31T18:41:52.102Z,101590.61
2017-08-31T18:44:19.825Z,101589.06
2017-08-31T18:46:47.589Z,101601.73
2017-08-31T18:49:15.346Z,101606.03
2017-08-31T18:51:43.117Z,101604.31
2017-08-31T18:54:10.882Z,101608.36
2017-08-31T18:56:38.668Z,101614.09
2017-08-31T18:59:06.400Z,101623.37
2017-08-31T19:01:34.208Z,101629.31
2017-08-31T19:04:01.973Z,101631.56
2017-08-31T19:06:29.742Z,101631.66
2017-08-31T19:08:57.541Z,101630.17
2017-08-31T19:11:25.276Z,101637.13
2017-08-31T19:13:53.056Z,101636.34
2017-08-31T19:16:20.839Z,101637.91
2017-08-31T19:18:48.621Z,101646.00
2017-08-31T19:21:16.381Z,101652.08
2017-08-31T19:23:44.150Z,101645.00
2017-08-31T19:26:11.888Z,101650.92
2017-08-31T19:28:39.674Z,101656.50
2017-08-31T19:31:07.422Z,101650.47
2017-08-31T19:33:35.181Z,101656.42
2017-08-31T19:36:02.960Z,101665.25
2017-08-31T19:38:30.741Z,101663.59
2017-08-31T19:40:58.527Z,101670.00
2017-08-31T19:43:26.267Z,101669.27
2017-08-31T19:45:54.194Z,101677.08
2017-08-31T19:48:22.037Z,101687.94
2017-08-31T19:50:49.981Z,101688.35
2017-08-31T19:53:17.871Z,101683.80
2017-08-31T19:55:45.778Z,101690.53
2017-08-31T19:58:13.635Z,101695.03
2017-08-31T20:00:41.528Z,101701.34
2017-08-31T20:03:09.384Z,101707.23
2017-08-31T20:05:37.265Z,101711.56
2017-08-31T20:08:05.133Z,101709.73
2017-08-31T20:10:32.977Z,101712.59
2017-08-31T20:13:00.891Z,101711.98
2017-08-31T20:15:28.748Z,101718.33
2017-08-31T20:17:56.644Z,101720.15
2017-08-31T20:20:24.497Z,101725.55
2017-08-31T20:22:52.428Z,101724.98
2017-08-31T20:25:20.341Z,101731.87
2017-08-31T20:27:48.248Z,101724.28
2017-08-31T20:30:16.089Z,101721.39
2017-08-31T20:32:43.975Z,101719.01
2017-08-31T20:35:11.839Z,101720.20
2017-08-31T20:37:39.632Z,101720.19
2017-08-31T20:40:07.478Z,101722.22
2017-08-31T20:42:35.217Z,101722.36
2017-08-31T20:45:03.037Z,101721.45
2017-08-31T20:47:30.840Z,101723.02
2017-08-31T20:49:58.622Z,101723.33
2017-08-31T20:52:26.377Z,101724.58
2017-08-31T20:54:54.182Z,101732.98
2017-08-31T20:57:21.932Z,101734.66
2017-08-31T20:59:49.717Z,101733.83
2017-08-31T21:02:17.573Z,101730.28
2017-08-31T21:04:45.463Z,101733.17
2017-08-31T21:07:13.309Z,101729.12
2017-08-31T21:09:41.189Z,101733.53
2017-08-31T21:12:08.990Z,101740.34
2017-08-31T21:14:36.823Z,101739.63
2017-08-31T21:17:04.697Z,101746.01
2017-08-31T21:19:32.557Z,101753.63
2017-08-31T21:22:00.510Z,101753.39
2017-08-31T21:24:28.349Z,101754.12
2017-08-31T21:26:56.263Z,101759.89
2017-08-31T21:29:24.098Z,101751.89
2017-08-31T21:31:51.951Z,101760.03
2017-08-31T21:34:19.809Z,101763.56
2017-08-31T21:36:47.678Z,101766.23
2017-08-31T21:39:15.500Z,101761.67
2017-08-31T21:41:43.425Z,101765.20
2017-08-31T21:44:11.271Z,101774.99
2017-08-31T21:46:39.135Z,101771.83
2017-08-31T21:49:06.926Z,101773.15
2017-08-31T21:51:34.785Z,101772.69
2017-08-31T21:54:02.582Z,101782.89
2017-08-31T21:56:30.417Z,101792.58
2017-08-31T21:58:58.332Z,101796.92
2017-08-31T22:01:26.185Z,101804.52
2017-08-31T22:03:54.072Z,101799.54
2017-08-31T22:06:21.928Z,101798.73
2017-08-31T22:08:49.668Z,101804.89
2017-08-31T22:11:17.548Z,101796.55
2017-08-31T22:13:45.369Z,101795.66
2017-08-31T22:16:13.249Z,101797.70
2017-08-31T22:18:41.079Z,101801.02
2017-08-31T22:21:08.878Z,101804.22
2017-08-31T22:23:36.748Z,101798.16
2017-08-31T22:26:04.683Z,101807.98
2017-08-31T22:28:32.511Z,101810.50
2017-08-31T22:31:00.235Z,101803.41
2017-08-31T22:33:28.116Z,101805.97
2017-08-31T22:35:55.960Z,101808.14
2017-08-31T22:38:23.817Z,101808.28
2017-08-31T22:40:51.631Z,101807.31
2017-08-31T22:43:19.515Z,101808.89
2017-08-31T22:45:47.228Z,101813.34
2017-08-31T22:48:15.072Z,101811.75
2017-08-31T22:50:42.866Z,101814.06
2017-08-31T22:53:10.701Z,101823.08
2017-08-31T22:55:38.488Z,101819.80
2017-08-31T22:58:21.927Z,101819.87
2017-08-31T23:00:49.657Z,101824.52
2017-08-31T23:03:17.514Z,101826.65
2017-08-31T23:05:45.322Z,101823.61
2017-08-31T23:08:13.160Z,101826.52
2017-08-31T23:10:40.971Z,101821.18
2017-08-31T23:13:08.759Z,101821.56
2017-08-31T23:15:36.591Z,101815.88
2017-08-31T23:18:04.435Z,101822.47
2017-08-31T23:20:32.290Z,101827.29
2017-08-31T23:23:00.013Z,101826.45
2017-08-31T23:25:27.864Z,101828.93
2017-08-31T23:27:55.671Z,101822.55
2017-08-31T23:30:23.494Z,101820.80
2017-08-31T23:32:51.301Z,101823.80
2017-08-31T23:35:19.126Z,101821.73
2017-08-31T23:37:46.936Z,101825.96
2017-08-31T23:40:14.793Z,101822.23
2017-08-31T23:42:42.509Z,101824.21
2017-08-31T23:45:10.389Z,101826.06
2017-08-31T23:47:38.200Z,101827.34
2017-08-31T23:50:05.982Z,101831.91
2017-08-31T23:52:33.834Z,101839.84
2017-08-31T23:55:01.556Z,101839.77
2017-08-31T23:57:29.386Z,101843.17
2017-08-31T23:59:57.203Z,101845.32
